Time;durP1;ratioP1;P1;durP2;ratioP2;P2;SDS_P1;SDS_P2;PMS_P1;PMS_P2;Temp;Humidity;BMP_temperature;BMP_pressure;BME280_temperature;BME280_humidity;BME280_pressure;Samples;Min_cycle;Max_cycle;Signal;HPM_P1;HPM_P2
2022/01/02 00:01:45;;;;;;;21.88;8.75;;;;;;;10.58;94.47;101595.38;5034167;28;20026;-52
2022/01/02 00:04:18;;;;;;;15.57;8.13;;;;;;;10.56;95.10;101592.03;5033959;28;20026;-49
2022/01/02 00:06:49;;;;;;;20.80;9.23;;;;;;;10.51;95.65;101589.00;5032294;28;20393;-50
2022/01/02 00:09:36;;;;;;;22.90;8.88;;;;;;;10.49;95.89;101589.16;5032442;28;20044;-48
2022/01/02 00:12:13;;;;;;;20.95;8.68;;;;;;;10.49;95.97;101604.47;5033778;28;20029;-48
2022/01/02 00:14:44;;;;;;;19.90;9.15;;;;;;;10.48;96.12;101600.94;5033332;28;20120;-46
2022/01/02 00:17:09;;;;;;;22.20;9.13;;;;;;;10.47;96.11;101582.25;5033524;28;20096;-49
2022/01/02 00:19:38;;;;;;;22.38;9.10;;;;;;;10.49;96.22;101588.31;5033429;28;20033;-48
2022/01/02 00:22:12;;;;;;;21.70;9.90;;;;;;;10.50;96.17;101589.97;5034111;28;20021;-45
2022/01/02 00:24:38;;;;;;;26.73;8.90;;;;;;;10.52;96.67;101596.06;5032491;28;20029;-44
2022/01/02 00:27:04;;;;;;;21.45;8.02;;;;;;;10.59;96.07;101596.25;5032493;28;20033;-45
2022/01/02 00:29:29;;;;;;;24.67;8.68;;;;;;;10.63;95.97;101587.66;5033128;28;20072;-42
2022/01/02 00:31:55;;;;;;;25.65;8.20;;;;;;;10.66;95.58;101573.88;5033716;28;20056;-42
2022/01/02 00:34:21;;;;;;;24.73;9.18;;;;;;;10.69;95.82;101562.81;5034581;28;20544;-42
2022/01/02 00:36:47;;;;;;;28.45;9.18;;;;;;;10.74;95.57;101560.47;5033303;28;20481;-43
2022/01/02 00:39:12;;;;;;;24.23;8.60;;;;;;;10.73;95.76;101566.81;5032900;28;20068;-44
2022/01/02 00:41:43;;;;;;;26.85;8.55;;;;;;;10.73;96.35;101558.75;5033125;28;20041;-46
2022/01/02 00:44:17;;;;;;;23.13;8.00;;;;;;;10.68;96.64;101563.78;5033074;28;20030;-46
2022/01/02 00:47:07;;;;;;;24.08;8.23;;;;;;;10.64;96.91;101548.16;5031855;28;20063;-45
2022/01/02 00:49:38;;;;;;;19.60;8.07;;;;;;;10.65;97.35;101547.97;5014101;28;20061;-45
2022/01/02 00:52:08;;;;;;;20.98;8.25;;;;;;;10.65;97.31;101541.75;5033024;28;20489;-49
2022/01/02 00:54:37;;;;;;;24.60;8.05;;;;;;;10.66;97.77;101546.13;5031712;28;20029;-45
2022/01/02 00:57:09;;;;;;;31.85;9.68;;;;;;;10.67;97.29;101548.66;5031251;28;20029;-45
2022/01/02 01:00:09;;;;;;;24.20;8.35;;;;;;;10.69;97.23;101538.56;5031856;28;20017;-43
2022/01/02 01:02:48;;;;;;;23.48;8.15;;;;;;;10.69;97.03;101533.19;5030284;28;20048;-42
2022/01/02 01:05:33;;;;;;;24.88;8.55;;;;;;;10.72;96.29;101532.84;5031976;28;20017;-43
2022/01/02 01:08:00;;;;;;;23.35;7.65;;;;;;;10.73;95.99;101523.75;5032406;28;20101;-43
2022/01/02 01:10:28;;;;;;;25.45;7.93;;;;;;;10.73;96.04;101512.97;5032744;28;20116;-44
2022/01/02 01:12:56;;;;;;;17.48;7.47;;;;;;;10.72;96.15;101492.47;5032915;28;20034;-42
2022/01/02 01:15:23;;;;;;;22.27;7.68;;;;;;;10.74;95.74;101477.00;5032853;28;20017;-40
2022/01/02 01:17:52;;;;;;;29.65;7.05;;;;;;;10.82;95.65;101481.53;5031970;28;20040;-41
2022/01/02 01:20:17;;;;;;;19.05;6.80;;;;;;;10.85;95.70;101493.78;5032627;28;20035;-40
2022/01/02 01:22:45;;;;;;;25.55;6.95;;;;;;;10.89;95.36;101470.91;5031478;28;20068;-41
2022/01/02 01:25:15;;;;;;;23.38;7.00;;;;;;;10.98;94.66;101481.53;5032285;28;20444;-41
2022/01/02 01:27:40;;;;;;;25.30;7.80;;;;;;;11.11;93.88;101493.63;5032287;28;20120;-43
2022/01/02 01:30:07;;;;;;;28.63;6.40;;;;;;;11.16;93.84;101489.44;5044540;28;20108;-42
2022/01/02 01:32:32;;;;;;;21.48;5.88;;;;;;;11.34;93.21;101472.22;5031690;28;20029;-41
2022/01/02 01:34:57;;;;;;;27.65;5.53;;;;;;;11.53;92.17;101481.78;5032283;28;20473;-41
2022/01/02 01:37:23;;;;;;;18.80;4.88;;;;;;;11.55;92.04;101468.97;5032271;28;20049;-42
2022/01/02 01:39:48;;;;;;;21.33;5.65;;;;;;;11.60;91.98;101456.66;5032348;28;20061;-41
2022/01/02 01:42:13;;;;;;;22.83;5.38;;;;;;;11.60;91.74;101456.66;5032453;28;20120;-41
2022/01/02 01:44:51;;;;;;;28.73;6.55;;;;;;;11.63;91.35;101450.91;5031984;28;20030;-41
2022/01/02 01:47:16;;;;;;;20.80;4.80;;;;;;;11.63;91.15;101468.94;5032129;28;20044;-41
2022/01/02 01:49:41;;;;;;;26.52;6.35;;;;;;;11.61;91.10;101447.56;5031458;28;20092;-41
2022/01/02 01:52:06;;;;;;;23.60;6.20;;;;;;;11.55;91.38;101456.31;5032418;28;20100;-41
2022/01/02 01:54:32;;;;;;;18.75;4.95;;;;;;;11.54;91.26;101449.25;5031954;28;20022;-40
2022/01/02 01:56:57;;;;;;;19.63;5.63;;;;;;;11.50;91.22;101447.91;5032189;28;20053;-41
2022/01/02 01:59:23;;;;;;;14.88;4.72;;;;;;;11.52;91.38;101456.69;5031550;28;20030;-42
2022/01/02 02:01:49;;;;;;;20.23;5.22;;;;;;;11.52;91.21;101442.38;5032332;28;20061;-41
2022/01/02 02:04:15;;;;;;;25.88;5.38;;;;;;;11.54;91.19;101435.78;5031210;28;20201;-41
2022/01/02 02:06:41;;;;;;;18.95;4.90;;;;;;;11.57;90.55;101430.03;5031826;28;20068;-41
2022/01/02 02:09:07;;;;;;;16.30;4.43;;;;;;;11.57;90.85;101446.22;5032138;28;20029;-41
2022/01/02 02:11:35;;;;;;;19.13;5.30;;;;;;;11.65;90.20;101432.69;5032332;28;20073;-41
2022/01/02 02:14:01;;;;;;;23.88;4.85;;;;;;;11.65;90.36;101427.31;5031177;28;20087;-41
2022/01/02 02:16:27;;;;;;;25.55;4.90;;;;;;;11.68;90.13;101431.50;5031726;28;20030;-41
2022/01/02 02:18:53;;;;;;;20.27;4.63;;;;;;;11.69;90.44;101432.34;5032245;28;20421;-41
2022/01/02 02:21:33;;;;;;;18.20;4.78;;;;;;;11.76;89.52;101427.94;4997581;28;20117;-41
2022/01/02 02:23:58;;;;;;;27.35;4.53;;;;;;;11.79;89.64;101438.38;5031300;28;20038;-41
2022/01/02 02:26:24;;;;;;;24.02;6.03;;;;;;;11.80;89.95;101432.00;5031538;28;20030;-41
2022/01/02 02:28:49;;;;;;;19.95;4.68;;;;;;;11.81;89.72;101429.09;5031300;28;20033;-41
2022/01/02 02:31:15;;;;;;;19.20;4.75;;;;;;;11.85;89.55;101414.25;5030729;28;20029;-41
2022/01/02 02:33:40;;;;;;;13.30;3.90;;;;;;;11.88;89.50;101405.00;5035561;28;20079;-41
2022/01/02 02:36:07;;;;;;;14.43;4.13;;;;;;;11.90;89.45;101397.59;5035110;28;20025;-41
2022/01/02 02:38:33;;;;;;;20.35;4.28;;;;;;;11.99;88.52;101420.78;5035736;28;20076;-42
2022/01/02 02:40:58;;;;;;;24.33;4.93;;;;;;;12.07;87.88;101391.06;5035243;28;20057;-41
2022/01/02 02:43:31;;;;;;;23.15;4.65;;;;;;;12.05;88.20;101385.00;5035293;28;20032;-41
2022/01/02 02:49:03;;;;;;;16.67;4.13;;;;;;;12.14;87.62;101375.00;5035608;28;20041;-41
2022/01/02 02:52:00;;;;;;;15.07;4.50;;;;;;;12.17;86.74;101363.00;5034986;28;20044;-43
2022/01/02 02:54:27;;;;;;;17.10;3.60;;;;;;;12.19;86.81;101379.84;5031801;28;20635;-41
2022/01/02 02:59:18;;;;;;;18.55;4.20;;;;;;;12.25;86.47;101381.84;5035255;28;20050;-42
2022/01/02 03:01:44;;;;;;;19.08;4.93;;;;;;;12.25;86.75;101387.25;5035162;28;20546;-41
2022/01/02 03:04:09;;;;;;;21.30;4.22;;;;;;;12.27;85.99;101388.75;5034576;28;20112;-41
2022/01/02 03:06:34;;;;;;;17.58;4.00;;;;;;;12.33;85.83;101380.94;5035137;28;20116;-41
2022/01/02 03:09:07;;;;;;;14.10;3.35;;;;;;;12.32;86.13;101384.66;5034307;28;20464;-42
2022/01/02 03:11:33;;;;;;;19.67;4.00;;;;;;;12.29;86.56;101380.44;5034771;28;20507;-41
2022/01/02 03:13:58;;;;;;;20.50;4.15;;;;;;;12.26;87.80;101353.81;5034586;28;20032;-41
2022/01/02 03:16:24;;;;;;;17.48;4.38;;;;;;;12.18;88.41;101351.19;5033622;28;20104;-41
2022/01/02 03:18:49;;;;;;;18.95;4.22;;;;;;;12.11;89.29;101344.81;5034802;28;20032;-41
2022/01/02 03:21:14;;;;;;;16.98;4.10;;;;;;;12.06;88.90;101348.91;5034558;28;20105;-41
2022/01/02 03:23:40;;;;;;;17.33;4.10;;;;;;;12.04;88.86;101342.03;5033779;28;20049;-41
2022/01/02 03:26:06;;;;;;;14.50;4.15;;;;;;;12.05;88.69;101346.38;5033314;28;20108;-40
2022/01/02 03:28:31;;;;;;;20.83;3.95;;;;;;;12.07;88.83;101333.56;5034882;28;20025;-40
2022/01/02 03:30:56;;;;;;;20.77;4.28;;;;;;;12.04;88.85;101332.06;5034622;28;20029;-41
2022/01/02 03:33:22;;;;;;;16.98;4.10;;;;;;;11.98;88.64;101313.03;5034330;28;20029;-41
2022/01/02 03:35:47;;;;;;;16.02;3.45;;;;;;;11.95;88.81;101324.19;5032913;28;20029;-41
2022/01/02 03:38:13;;;;;;;18.90;3.70;;;;;;;11.92;88.74;101325.41;5034510;28;20025;-41
2022/01/02 03:40:38;;;;;;;15.75;4.55;;;;;;;11.92;88.39;101320.00;5033857;28;20029;-41
2022/01/02 03:43:04;;;;;;;25.83;4.43;;;;;;;11.94;88.11;101322.53;5032433;28;20026;-41
2022/01/02 03:45:29;;;;;;;17.27;4.15;;;;;;;11.92;88.31;101314.59;5034308;28;20110;-41
2022/01/02 03:47:54;;;;;;;20.85;4.55;;;;;;;11.93;88.01;101305.50;5033966;28;20036;-41
2022/01/02 03:50:20;;;;;;;18.98;4.00;;;;;;;11.99;87.76;101315.56;5034214;28;20045;-41
2022/01/02 03:52:46;;;;;;;10.05;3.42;;;;;;;12.00;87.70;101295.66;5034030;28;20030;-41
2022/01/02 03:55:11;;;;;;;18.48;3.55;;;;;;;12.00;87.81;101298.34;5033506;28;20033;-41
2022/01/02 03:57:37;;;;;;;17.75;3.40;;;;;;;12.08;86.86;101294.75;5033982;28;20466;-42
2022/01/02 04:00:06;;;;;;;20.92;4.22;;;;;;;12.06;87.21;101300.34;5034092;28;20033;-41
2022/01/02 04:02:31;;;;;;;16.90;3.58;;;;;;;12.10;86.65;101300.00;5033454;28;20440;-42
2022/01/02 04:04:56;;;;;;;19.27;3.95;;;;;;;12.12;86.37;101308.75;5033879;28;20029;-41
2022/01/02 04:07:22;;;;;;;15.00;3.38;;;;;;;12.11;86.27;101288.16;5033222;28;20029;-41
2022/01/02 04:09:48;;;;;;;19.60;3.97;;;;;;;12.07;86.76;101280.44;5034258;28;20382;-42
2022/01/02 04:12:14;;;;;;;9.60;3.28;;;;;;;12.04;86.39;101286.19;5033095;28;20075;-41
2022/01/02 04:14:39;;;;;;;18.42;4.28;;;;;;;12.02;86.47;101293.63;5033950;28;20108;-42
2022/01/02 04:17:04;;;;;;;14.70;3.63;;;;;;;11.95;86.75;101303.44;5033601;28;20184;-42
2022/01/02 04:19:30;;;;;;;17.70;4.50;;;;;;;11.94;86.84;101282.91;5033360;28;20476;-42
2022/01/02 04:21:55;;;;;;;16.27;3.97;;;;;;;11.92;87.46;101287.63;5033738;28;20037;-42
2022/01/02 04:24:20;;;;;;;17.23;4.07;;;;;;;11.89;87.69;101271.81;5033358;28;20025;-41
2022/01/02 04:26:46;;;;;;;12.93;3.83;;;;;;;11.78;87.89;101259.56;5033111;28;20487;-41
2022/01/02 04:29:11;;;;;;;15.80;4.13;;;;;;;11.79;87.83;101274.72;5033294;28;20033;-41
2022/01/02 04:31:36;;;;;;;23.88;4.28;;;;;;;11.77;88.06;101262.41;5032367;28;20025;-42
2022/01/02 04:34:02;;;;;;;11.90;3.38;;;;;;;11.74;88.00;101258.25;5033656;28;20378;-41
2022/01/02 04:36:27;;;;;;;15.65;4.32;;;;;;;11.69;88.04;101249.00;5033417;28;20040;-41
2022/01/02 04:38:52;;;;;;;14.65;3.60;;;;;;;11.69;88.14;101246.31;5034358;28;20397;-41
2022/01/02 04:41:18;;;;;;;12.57;4.75;;;;;;;11.68;88.11;101239.25;5044001;28;20392;-41
2022/01/02 04:43:43;;;;;;;19.90;4.28;;;;;;;11.67;88.07;101230.31;5030988;28;20060;-43
2022/01/02 04:46:08;;;;;;;19.27;4.30;;;;;;;11.69;88.16;101227.44;5033087;28;20036;-42
2022/01/02 04:48:34;;;;;;;12.07;4.10;;;;;;;11.70;88.05;101212.94;5032984;28;20022;-41
2022/01/02 04:50:59;;;;;;;18.52;5.00;;;;;;;11.70;88.27;101207.56;5032804;28;20350;-42
2022/01/02 04:53:24;;;;;;;12.45;3.90;;;;;;;11.69;89.10;101205.84;5032848;28;20108;-42
2022/01/02 04:55:50;;;;;;;14.40;3.92;;;;;;;11.63;90.18;101200.16;5030763;28;20064;-42
2022/01/02 04:58:16;;;;;;;16.98;3.80;;;;;;;11.60;90.48;101214.00;5032415;28;20136;-41
2022/01/02 05:00:41;;;;;;;14.88;3.58;;;;;;;11.56;91.18;101179.53;5032448;28;20037;-43
2022/01/02 05:03:07;;;;;;;16.92;3.55;;;;;;;11.52;91.28;101192.50;5031981;28;20017;-42
2022/01/02 05:05:32;;;;;;;17.02;3.92;;;;;;;11.57;90.74;101181.19;5032397;28;20033;-42
2022/01/02 05:07:58;;;;;;;12.63;4.32;;;;;;;11.54;90.86;101187.78;5032007;28;20041;-44
2022/01/02 05:10:23;;;;;;;17.27;3.80;;;;;;;11.52;91.50;101179.03;5032366;28;20029;-44
2022/01/02 05:12:48;;;;;;;13.48;3.85;;;;;;;11.47;91.52;101169.81;5032269;28;20067;-43
2022/01/02 05:15:14;;;;;;;12.02;3.65;;;;;;;11.48;90.91;101169.66;5032612;28;20036;-43
2022/01/02 05:17:39;;;;;;;12.00;3.88;;;;;;;11.49;90.23;101157.84;5032356;28;20112;-43
2022/01/02 05:20:05;;;;;;;14.95;3.60;;;;;;;11.51;90.68;101144.19;5034812;28;20033;-42
2022/01/02 05:22:30;;;;;;;13.80;3.75;;;;;;;11.51;90.19;101145.03;5035900;28;20022;-42
2022/01/02 05:24:56;;;;;;;10.68;3.40;;;;;;;11.55;90.16;101138.22;5033504;28;20543;-42
2022/01/02 05:27:21;;;;;;;14.02;3.72;;;;;;;11.61;89.50;101124.03;5032048;28;20095;-42
2022/01/02 05:29:46;;;;;;;14.90;3.88;;;;;;;11.62;89.61;101124.88;5032114;28;20088;-42
2022/01/02 05:32:12;;;;;;;12.57;3.63;;;;;;;11.63;89.04;101113.06;5031499;28;20029;-42
2022/01/02 05:34:37;;;;;;;12.10;3.28;;;;;;;11.65;89.36;101119.94;5032147;28;20104;-42
2022/01/02 05:37:02;;;;;;;14.48;4.30;;;;;;;11.67;89.10;101106.31;5031805;28;20037;-41
2022/01/02 05:39:28;;;;;;;13.10;3.50;;;;;;;11.69;88.83;101098.00;5031969;28;20500;-41
2022/01/02 05:41:53;;;;;;;15.93;3.95;;;;;;;11.71;88.45;101104.06;5031700;28;20397;-41
2022/01/02 05:44:19;;;;;;;16.33;3.72;;;;;;;11.74;88.06;101092.91;5032024;28;20464;-42
2022/01/02 05:46:44;;;;;;;12.52;3.78;;;;;;;11.76;87.94;101096.25;5030992;28;20065;-41
2022/01/02 05:49:11;;;;;;;12.88;3.88;;;;;;;11.77;87.97;101089.84;5031770;28;20029;-41
2022/01/02 05:51:36;;;;;;;14.35;4.45;;;;;;;11.70;88.25;101078.97;5032099;28;20408;-42
2022/01/02 05:54:03;;;;;;;12.90;3.97;;;;;;;11.68;88.31;101080.16;5032064;28;20025;-41
2022/01/02 05:56:28;;;;;;;10.82;3.65;;;;;;;11.67;88.02;101078.50;5031733;28;20052;-42
2022/01/02 05:58:53;;;;;;;14.45;4.03;;;;;;;11.66;87.83;101058.78;5031614;28;20607;-42
2022/01/02 06:01:19;;;;;;;13.88;4.05;;;;;;;11.69;87.41;101069.22;5031724;28;20036;-42
2022/01/02 06:03:44;;;;;;;12.75;4.28;;;;;;;11.72;86.91;101060.75;5031632;28;20124;-42
2022/01/02 06:06:09;;;;;;;8.32;3.95;;;;;;;11.74;86.76;101055.16;5033260;28;20037;-41
2022/01/02 06:08:35;;;;;;;12.80;4.30;;;;;;;11.69;86.55;101044.09;5035824;28;20025;-41
2022/01/02 06:11:00;;;;;;;14.23;4.10;;;;;;;11.65;86.56;101049.03;5035475;28;20025;-41
2022/01/02 06:13:25;;;;;;;10.75;4.32;;;;;;;11.60;86.87;101035.25;5036014;28;20032;-41
2022/01/02 06:15:51;;;;;;;7.68;4.45;;;;;;;11.56;86.88;101040.19;5034390;28;20029;-42
2022/01/02 06:18:16;;;;;;;13.80;4.68;;;;;;;11.57;87.18;101031.06;5031282;28;20025;-41
2022/01/02 06:20:41;;;;;;;10.73;5.05;;;;;;;11.63;86.26;101035.72;5026206;28;20025;-43
2022/01/02 06:23:07;;;;;;;10.75;4.60;;;;;;;11.71;85.59;101009.69;5032779;28;20028;-43
2022/01/02 06:25:33;;;;;;;16.75;4.70;;;;;;;11.74;85.12;101015.56;5031439;28;20080;-42
2022/01/02 06:27:59;;;;;;;14.70;4.80;;;;;;;11.75;84.97;100994.84;5032694;28;20068;-42
2022/01/02 06:30:24;;;;;;;15.43;5.13;;;;;;;11.70;85.12;100999.94;5032216;28;20045;-41
2022/01/02 06:32:54;;;;;;;11.32;4.63;;;;;;;11.68;85.67;101010.91;5032617;28;20036;-42
2022/01/02 06:35:24;;;;;;;15.15;5.15;;;;;;;11.61;86.65;100999.19;5032089;28;20038;-42
2022/01/02 06:37:50;;;;;;;16.92;4.57;;;;;;;11.49;87.56;101017.69;5032753;28;20021;-42
2022/01/02 06:40:15;;;;;;;12.52;5.00;;;;;;;11.43;88.76;101003.09;5032474;28;20029;-42
2022/01/02 06:42:41;;;;;;;14.57;5.07;;;;;;;11.32;89.33;100992.75;5032555;28;20033;-43
2022/01/02 06:45:07;;;;;;;17.52;5.03;;;;;;;11.26;89.89;100977.31;5032452;28;20385;-42
2022/01/02 06:47:32;;;;;;;14.60;4.78;;;;;;;11.24;90.14;100991.97;5032189;28;20389;-43
2022/01/02 06:49:57;;;;;;;18.35;6.28;;;;;;;11.23;89.90;100968.75;5031782;28;20081;-42
2022/01/02 06:52:22;;;;;;;21.42;5.25;;;;;;;11.37;87.55;100976.03;5032194;28;20437;-43
2022/01/02 06:54:52;;;;;;;14.48;5.07;;;;;;;11.41;87.80;100974.66;5032405;28;20032;-42
2022/01/02 06:57:18;;;;;;;17.58;4.90;;;;;;;11.42;87.40;100997.88;5032030;28;20037;-41
2022/01/02 06:59:43;;;;;;;14.43;5.00;;;;;;;11.42;87.30;100989.78;5032312;28;20381;-42
2022/01/02 07:02:08;;;;;;;13.88;4.65;;;;;;;11.42;86.95;100989.78;5035613;28;20047;-42
2022/01/02 07:04:34;;;;;;;16.38;4.43;;;;;;;11.54;85.29;100988.31;5031832;28;20091;-42
2022/01/02 07:06:59;;;;;;;12.25;5.13;;;;;;;11.54;85.69;100993.72;5031245;28;20033;-42
2022/01/02 07:09:24;;;;;;;12.77;4.32;;;;;;;11.54;85.17;100999.09;5031724;28;20072;-42
2022/01/02 07:11:50;;;;;;;14.25;4.88;;;;;;;11.58;84.68;101005.78;5032008;28;20095;-40
2022/01/02 07:14:15;;;;;;;12.63;4.05;;;;;;;11.59;84.83;101007.47;5031721;28;20499;-42
2022/01/02 07:16:40;;;;;;;12.07;4.35;;;;;;;11.62;84.35;101000.88;5032053;28;20394;-42
2022/01/02 07:19:05;;;;;;;8.98;4.00;;;;;;;11.54;84.82;101004.50;5031167;28;20558;-42
2022/01/02 07:21:31;;;;;;;16.13;4.93;;;;;;;11.48;85.08;101005.22;5031241;28;20131;-40
2022/01/02 07:23:58;;;;;;;12.68;4.25;;;;;;;11.48;85.35;101005.22;5029993;28;20573;-42
2022/01/02 07:26:24;;;;;;;15.90;3.95;;;;;;;11.53;84.95;100997.44;5031443;28;20064;-41
2022/01/02 07:28:49;;;;;;;11.05;4.35;;;;;;;11.53;85.02;101000.13;5031356;28;20136;-41
2022/01/02 07:31:15;;;;;;;17.90;5.20;;;;;;;11.51;85.06;101004.88;5030141;28;20030;-41
2022/01/02 07:33:40;;;;;;;10.43;4.13;;;;;;;11.50;85.40;101007.72;5031658;28;20375;-42
2022/01/02 07:36:05;;;;;;;9.68;4.05;;;;;;;11.47;85.76;100998.16;5031050;28;20029;-42
2022/01/02 07:38:31;;;;;;;14.07;4.97;;;;;;;11.43;86.04;100999.56;5030905;28;20029;-43
2022/01/02 07:40:56;;;;;;;12.63;4.80;;;;;;;11.37;86.48;100981.41;5031479;28;20029;-41
2022/01/02 07:43:21;;;;;;;11.40;4.40;;;;;;;11.35;87.00;100991.56;5031545;28;20044;-42
2022/01/02 07:45:47;;;;;;;13.25;5.18;;;;;;;11.34;87.15;100989.88;5031482;28;20482;-42
2022/01/02 07:48:12;;;;;;;20.88;5.70;;;;;;;11.35;87.18;100980.78;5030949;28;20036;-42
2022/01/02 07:50:37;;;;;;;10.60;4.32;;;;;;;11.33;87.78;100982.81;5023699;28;20044;-41
2022/01/02 07:53:03;;;;;;;11.18;4.70;;;;;;;11.32;87.77;100973.91;5031062;28;20037;-41
2022/01/02 07:55:28;;;;;;;19.60;4.97;;;;;;;11.35;87.96;100972.69;5030927;28;20113;-43
2022/01/02 07:57:53;;;;;;;18.63;4.70;;;;;;;11.37;88.13;100976.03;5029345;28;20033;-41
2022/01/02 08:00:21;;;;;;;13.63;5.00;;;;;;;11.35;88.27;100975.38;5029162;28;20362;-41
2022/01/02 08:02:46;;;;;;;8.30;4.57;;;;;;;11.34;88.61;100979.91;5030827;28;20029;-41
2022/01/02 08:05:11;;;;;;;16.90;4.95;;;;;;;11.36;88.90;100966.28;5020855;28;20713;-42
2022/01/02 08:07:40;;;;;;;18.73;4.90;;;;;;;11.37;89.14;100976.03;5012192;28;20029;-43
2022/01/02 08:10:06;;;;;;;18.65;5.32;;;;;;;11.38;89.11;100967.75;5028112;28;20458;-44
2022/01/02 08:12:32;;;;;;;18.92;5.00;;;;;;;11.37;89.31;100971.50;5030647;28;20108;-42
2022/01/02 08:14:57;;;;;;;13.43;5.50;;;;;;;11.39;89.25;100980.19;5030869;28;20052;-42
2022/01/02 08:17:22;;;;;;;15.75;4.72;;;;;;;11.42;89.22;100970.91;5030975;28;20576;-41
2022/01/02 08:19:48;;;;;;;14.07;5.10;;;;;;;11.41;88.98;100998.91;5030498;28;20037;-40
2022/01/02 08:22:13;;;;;;;21.55;6.43;;;;;;;11.40;89.01;100972.94;5031691;28;20021;-41
2022/01/02 08:24:38;;;;;;;22.58;5.53;;;;;;;11.39;89.28;100974.81;5032537;28;20045;-41
2022/01/02 08:27:04;;;;;;;15.80;5.30;;;;;;;11.38;88.94;100964.25;5031622;28;20056;-41
2022/01/02 08:29:29;;;;;;;14.95;5.63;;;;;;;11.35;88.94;100951.13;5032968;28;20091;-42
2022/01/02 08:31:54;;;;;;;17.48;5.32;;;;;;;11.36;88.84;100967.09;5033920;28;20033;-43
2022/01/02 08:34:20;;;;;;;16.75;5.68;;;;;;;11.27;89.02;100972.75;5033324;28;20044;-42
2022/01/02 08:36:45;;;;;;;16.77;6.18;;;;;;;11.25;88.23;100966.72;5033891;28;20358;-42
2022/01/02 08:39:10;;;;;;;15.80;6.18;;;;;;;11.25;87.62;100967.56;5032049;28;20456;-42
2022/01/02 08:41:36;;;;;;;14.45;5.93;;;;;;;11.18;87.42;100993.53;5032788;28;20037;-43
2022/01/02 08:44:01;;;;;;;19.75;6.35;;;;;;;11.16;87.25;100968.63;5033175;28;20448;-41
2022/01/02 08:46:26;;;;;;;15.68;5.90;;;;;;;11.16;86.84;100968.63;5033788;28;20049;-42
2022/01/02 08:48:52;;;;;;;16.70;6.25;;;;;;;11.14;86.50;100971.53;5032564;28;20030;-42
2022/01/02 08:51:17;;;;;;;17.52;6.10;;;;;;;11.16;86.29;100974.91;5033263;28;20120;-41
2022/01/02 08:53:42;;;;;;;18.05;5.80;;;;;;;11.15;85.82;100962.44;5033377;28;20049;-41
2022/01/02 08:56:08;;;;;;;14.82;5.70;;;;;;;11.24;85.78;100970.41;5031053;28;20021;-42
2022/01/02 08:58:33;;;;;;;11.18;5.72;;;;;;;11.38;85.47;100961.53;5031788;28;20033;-42
2022/01/02 09:01:00;;;;;;;11.40;5.30;;;;;;;11.46;85.07;100980.31;5032810;28;20414;-42
2022/01/02 09:03:26;;;;;;;18.10;6.13;;;;;;;11.56;84.09;100997.06;5028486;28;20083;-42
2022/01/02 09:05:51;;;;;;;13.15;5.90;;;;;;;11.52;83.81;100984.97;5013357;28;20141;-43
2022/01/02 09:08:16;;;;;;;16.88;6.32;;;;;;;11.56;83.82;100999.75;5025160;28;20167;-42
2022/01/02 09:10:42;;;;;;;16.02;6.63;;;;;;;11.48;83.94;100977.41;5032624;28;20040;-42
2022/01/02 09:13:08;;;;;;;11.90;5.60;;;;;;;11.35;84.16;100975.38;5032658;28;20033;-42
2022/01/02 09:15:34;;;;;;;12.07;5.88;;;;;;;11.32;84.52;100983.81;5032687;28;20029;-41
2022/01/02 09:17:59;;;;;;;17.83;5.90;;;;;;;11.44;84.19;100995.81;5031532;28;20127;-42
2022/01/02 09:20:24;;;;;;;12.82;5.75;;;;;;;11.61;83.56;100966.84;5032405;28;20065;-40
2022/01/02 09:22:51;;;;;;;13.85;5.60;;;;;;;11.47;83.76;100971.19;5032185;28;20080;-41
2022/01/02 09:25:16;;;;;;;15.20;5.63;;;;;;;11.52;83.67;100989.53;5032582;28;20025;-41
2022/01/02 09:27:42;;;;;;;14.50;5.93;;;;;;;11.85;82.70;100995.41;5017888;28;20041;-42
2022/01/02 09:30:08;;;;;;;19.70;5.40;;;;;;;11.93;82.17;100970.19;5019211;28;20080;-41
2022/01/02 09:32:34;;;;;;;14.05;5.22;;;;;;;11.97;81.96;100983.13;5030864;28;20033;-42
2022/01/02 09:35:04;;;;;;;18.55;5.38;;;;;;;12.03;81.90;100984.22;5032657;28;20040;-42
2022/01/02 09:37:29;;;;;;;23.25;5.60;;;;;;;12.03;82.16;100976.13;5032106;28;20038;-42
2022/01/02 09:39:55;;;;;;;16.58;4.85;;;;;;;11.98;82.76;101003.69;5031411;28;20045;-41
2022/01/02 09:42:20;;;;;;;19.02;4.95;;;;;;;11.93;82.98;100976.44;5023043;28;20030;-41
2022/01/02 09:44:45;;;;;;;20.38;4.97;;;;;;;11.95;83.03;100979.78;5019522;28;20455;-43
2022/01/02 09:47:12;;;;;;;20.63;4.82;;;;;;;11.95;83.18;100985.16;5028865;28;20041;-42
2022/01/02 09:49:41;;;;;;;20.75;4.78;;;;;;;11.94;83.66;100969.19;5029168;28;20046;-42
2022/01/02 09:52:07;;;;;;;18.02;4.88;;;;;;;11.92;83.94;101011.69;5029189;28;20132;-42
2022/01/02 09:54:34;;;;;;;16.30;4.90;;;;;;;11.83;84.07;101008.22;5029286;28;20034;-42
2022/01/02 09:57:01;;;;;;;23.23;5.13;;;;;;;11.81;84.46;100999.47;5024758;28;20497;-42
2022/01/02 09:59:26;;;;;;;22.20;4.83;;;;;;;11.77;85.13;100988.25;5029202;28;20033;-42
2022/01/02 10:01:51;;;;;;;24.13;5.22;;;;;;;11.69;85.39;100988.34;5028457;28;20025;-41
2022/01/02 10:04:39;;;;;;;28.88;5.40;;;;;;;11.65;85.51;101001.31;5030331;28;20041;-42
2022/01/02 10:07:06;;;;;;;23.38;5.50;;;;;;;11.63;86.00;100997.16;5035013;28;20519;-42
2022/01/02 10:09:32;;;;;;;24.52;5.40;;;;;;;11.61;86.18;101005.44;5039530;28;20029;-42
2022/01/02 10:12:30;;;;;;;30.55;5.85;;;;;;;11.57;86.37;100998.72;5033627;28;20140;-42
2022/01/02 10:15:18;;;;;;;18.95;4.65;;;;;;;11.55;86.42;101016.94;5029217;28;20048;-42
2022/01/02 10:17:50;;;;;;;30.40;5.40;;;;;;;11.54;86.61;100999.09;5015997;28;20034;-41
2022/01/02 10:20:15;;;;;;;28.10;5.82;;;;;;;11.51;86.57;100996.78;5029400;28;20038;-42
2022/01/02 10:23:05;;;;;;;25.52;5.72;;;;;;;11.49;86.83;101000.69;5021547;28;20398;-40
2022/01/02 10:25:50;;;;;;;27.30;5.43;;;;;;;11.47;87.10;101008.94;5030342;28;20040;-40
2022/01/02 10:28:40;;;;;;;25.05;5.30;;;;;;;11.45;87.33;101005.56;5031888;28;20068;-42
2022/01/02 10:31:07;;;;;;;26.98;5.07;;;;;;;11.42;87.59;101003.25;5022308;28;20077;-41
2022/01/02 10:34:05;;;;;;;27.73;5.93;;;;;;;11.45;87.69;101010.97;5030883;28;20096;-41
2022/01/02 10:36:40;;;;;;;29.50;6.55;;;;;;;11.45;87.62;101010.97;5031418;28;20076;-41
2022/01/02 10:39:20;;;;;;;26.02;5.78;;;;;;;11.49;88.01;100996.13;5032227;28;20460;-42
2022/01/02 10:41:47;;;;;;;36.80;5.97;;;;;;;11.52;87.85;101020.00;5032243;28;20033;-42
2022/01/02 10:44:16;;;;;;;30.90;6.35;;;;;;;11.48;87.68;101026.78;5031923;28;20033;-42
2022/01/02 10:47:05;;;;;;;36.28;6.18;;;;;;;11.50;87.56;101015.81;5030742;28;20105;-42
2022/01/02 10:49:50;;;;;;;34.88;5.53;;;;;;;11.43;87.93;101011.16;5032055;28;20058;-43
2022/01/02 10:52:20;;;;;;;48.15;7.00;;;;;;;11.42;87.79;101004.09;5032070;28;20128;-41
2022/01/02 10:54:45;;;;;;;35.13;5.95;;;;;;;11.39;88.26;101017.94;5035856;28;20095;-42
2022/01/02 10:57:12;;;;;;;33.55;4.78;;;;;;;11.47;88.32;101003.53;5034484;28;20026;-41
2022/01/02 10:59:38;;;;;;;36.75;5.45;;;;;;;11.43;88.32;101019.25;5035778;28;20075;-42
2022/01/02 11:02:04;;;;;;;35.40;5.85;;;;;;;11.41;88.35;101023.16;5017302;28;20036;-42
2022/01/02 11:04:31;;;;;;;38.53;5.53;;;;;;;11.39;88.59;101019.78;5034759;28;20025;-42
2022/01/02 11:07:00;;;;;;;38.08;5.30;;;;;;;11.38;88.62;101029.75;5035421;28;20033;-42
2022/01/02 11:09:27;;;;;;;35.38;6.25;;;;;;;11.32;88.34;101025.09;5031814;28;20044;-42
2022/01/02 11:11:52;;;;;;;34.50;5.45;;;;;;;11.33;88.67;101031.31;5016056;28;20026;-42
2022/01/02 11:14:18;;;;;;;42.22;6.35;;;;;;;11.31;88.22;101025.25;5017581;28;20668;-42
2022/01/02 11:16:43;;;;;;;38.38;5.78;;;;;;;11.30;88.06;101026.28;5033583;28;20071;-44
2022/01/02 11:19:11;;;;;;;34.50;5.88;;;;;;;11.38;87.69;101034.31;5032913;28;20075;-41
2022/01/02 11:21:38;;;;;;;31.90;5.10;;;;;;;11.49;86.85;101033.84;5022521;28;20481;-42
2022/01/02 11:24:10;;;;;;;37.17;5.80;;;;;;;11.55;86.54;101033.09;5033625;28;20074;-42